Altha, Florida
Current Conditions -  °F | °C
As of 11:53 AM on Thursday 30 Oct 2014 (Local Time) from KMAI Reporting Station
Clear Clear  
Wind Chill: 71°   Ceiling: Unl
Heat Index: 71°   Visibility: 10mi
Dew Point: 43°   Wind: 10mph
Humidity: 36%   Direction: 360°N
Pressure: 30.03"   Gusts: 17mph
Location:  30.57°N, 85.13°W
Report Text: KMAI 301653Z AUTO 36009G15KT 10SM CLR 22/06 A3003 RMK AO2 RAB18E32 SLP168 P0000 T02170061
Loading
Personal Weather Stations






























Interactive Weather Map
Tropical Storm Tracking
New forecast layout! Learn more

10-Day Weather Forecast

Advertisements
Track Severe Weather on mobile